Thunder radar more information blitzortung!


Radar de pluja more information rain snow radar


Visita la nostra xarxa de llocs de meteo:

Template documentation
and downloads

And another site



No particular awareness of the weather is required.    There are no Weather-warnings

Pagina Historial Weather Underground text

Diari Resum Novembre 30, 2017 Unitats:  Mètric    Imperial   Tant
« Previous Dia
SegĂźent Dia »
Diari Setmana Mensual Anual Personalitzada
  Maxima: Minima: Media:
Temperatura: 12.0 °C 0.6 °C 5.2 °C
Punt de rosada: 0.1 °C -10.0 °C -4.5 °C
Humitat: 70 % 32 % 52 %
Wind Speed: 14.8 km/h 0.0 km/h 3.1 km/h
RĂ fegues de vent: 14.8 km/h - -
Vent:- - SSW
Pression baro: 1014.8 hPa 1008.0 hPa -
Precipitacions: 0.0 mm    
Historical Graphs
 
 
Dades de taula per Novembre 30, 2017
Temps Temperatura Punt de rosada Pression baro Vent Wind Speed RĂ fegues de vent Humitat Rainfall Rate (Hourly)
00:00 3.2 °C -2.2 °C 1008.0 hPa SW 2.6 km/h 2.6 km/h 68 % 0.0 mm
00:05 3.1 °C -2.2 °C 1008.0 hPa SW 4.7 km/h 4.7 km/h 68 % 0.0 mm
00:20 2.9 °C -2.4 °C 1008.0 hPa SW 1.6 km/h 3.2 km/h 68 % 0.0 mm
00:25 2.9 °C -2.4 °C 1008.0 hPa West 1.6 km/h   68 % 0.0 mm
00:30 2.9 °C -2.2 °C 1008.0 hPa North 1.6 km/h 3.2 km/h 69 % 0.0 mm
00:35 2.9 °C -2.2 °C 1008.0 hPa NE 1.6 km/h 3.2 km/h 69 % 0.0 mm
00:40 2.8 °C -2.1 °C 1008.0 hPa NE 3.2 km/h 3.2 km/h 70 % 0.0 mm
00:45 2.8 °C -2.1 °C 1008.0 hPa NE 1.6 km/h 1.6 km/h 70 % 0.0 mm
00:50 2.6 °C -2.3 °C 1009.0 hPa North 1.6 km/h 3.2 km/h 70 % 0.0 mm
00:55 2.6 °C -2.3 °C 1009.0 hPa NNE 1.6 km/h   70 % 0.0 mm
01:00 2.6 °C -2.3 °C 1009.0 hPa Calm   1.6 km/h 70 % 0.0 mm
01:05 2.6 °C -2.3 °C 1009.0 hPa Calm     70 % 0.0 mm
01:10 2.5 °C -2.4 °C 1009.0 hPa South 1.6 km/h 3.2 km/h 70 % 0.0 mm
01:20 2.5 °C -2.4 °C 1009.0 hPa Calm     70 % 0.0 mm
01:25 2.5 °C -2.4 °C 1009.0 hPa Calm     70 % 0.0 mm
01:50 2.6 °C -2.5 °C 1010.0 hPa WSW 3.2 km/h 3.2 km/h 69 % 0.0 mm
01:55 2.6 °C -2.3 °C 1010.0 hPa Calm   3.2 km/h 70 % 0.0 mm
02:00 2.8 °C -2.1 °C 1010.0 hPa Calm   3.2 km/h 70 % 0.0 mm
02:05 3.3 °C -1.8 °C 1010.0 hPa WSW 3.2 km/h 3.2 km/h 69 % 0.0 mm
02:15 3.9 °C -1.5 °C 1009.0 hPa ENE 1.6 km/h 1.6 km/h 68 % 0.0 mm
02:20 3.8 °C -1.6 °C 1009.0 hPa NE 1.6 km/h 3.2 km/h 68 % 0.0 mm
02:25 3.2 °C -2.3 °C 1009.0 hPa ENE 3.2 km/h 3.2 km/h 67 % 0.0 mm
02:30 3.0 °C -2.6 °C 1010.0 hPa Calm   3.2 km/h 67 % 0.0 mm
02:35 2.8 °C -2.7 °C 1010.0 hPa SSE 1.6 km/h 3.2 km/h 67 % 0.0 mm
02:45 2.6 °C -2.9 °C 1010.0 hPa NW 1.6 km/h 1.6 km/h 67 % 0.0 mm
02:50 2.5 °C -2.8 °C 1010.0 hPa Calm   1.6 km/h 68 % 0.0 mm
02:55 2.6 °C -2.7 °C 1010.0 hPa Calm     68 % 0.0 mm
03:05 2.7 °C -2.6 °C 1010.0 hPa Calm     68 % 0.0 mm
03:10 2.8 °C -2.5 °C 1010.0 hPa WNW 1.6 km/h 1.6 km/h 68 % 0.0 mm
03:15 2.8 °C -2.5 °C 1010.0 hPa Calm     68 % 0.0 mm
03:20 2.8 °C -2.5 °C 1010.0 hPa Calm   1.6 km/h 68 % 0.0 mm
03:25 2.6 °C -2.7 °C 1010.0 hPa Calm     68 % 0.0 mm
03:30 2.7 °C -2.6 °C 1010.0 hPa Calm     68 % 0.0 mm
03:35 2.8 °C -2.5 °C 1010.0 hPa Calm     68 % 0.0 mm
03:40 2.8 °C -2.5 °C 1010.0 hPa Calm     68 % 0.0 mm
03:45 2.6 °C -2.7 °C 1010.0 hPa NNW 1.6 km/h 1.6 km/h 68 % 0.0 mm
03:50 2.6 °C -2.7 °C 1010.0 hPa NNW 1.6 km/h 3.2 km/h 68 % 0.0 mm
03:55 2.6 °C -2.7 °C 1010.0 hPa North 4.8 km/h 4.8 km/h 68 % 0.0 mm
04:00 2.6 °C -2.7 °C 1010.0 hPa NE 1.6 km/h 4.8 km/h 68 % 0.0 mm
04:05 2.5 °C -2.8 °C 1010.0 hPa NNE 1.6 km/h 1.6 km/h 68 % 0.0 mm
04:10 2.5 °C -2.8 °C 1010.0 hPa NE 1.6 km/h 1.6 km/h 68 % 0.0 mm
04:15 2.4 °C -2.9 °C 1010.0 hPa NNE 3.2 km/h 3.2 km/h 68 % 0.0 mm
04:20 2.4 °C -2.9 °C 1010.0 hPa North 3.2 km/h 3.2 km/h 68 % 0.0 mm
04:25 2.2 °C -3.1 °C 1010.0 hPa NNE 1.6 km/h 3.2 km/h 68 % 0.0 mm
04:30 2.2 °C -3.1 °C 1010.0 hPa NNE 1.6 km/h 3.2 km/h 68 % 0.0 mm
04:35 2.1 °C -3.2 °C 1010.0 hPa NNE 1.6 km/h 1.6 km/h 68 % 0.0 mm
04:40 2.1 °C -3.2 °C 1010.0 hPa NNE 1.6 km/h 1.6 km/h 68 % 0.0 mm
04:45 2.0 °C -3.3 °C 1010.0 hPa North 3.2 km/h 3.2 km/h 68 % 0.0 mm
04:50 1.9 °C -3.4 °C 1010.0 hPa NNW 1.6 km/h 3.2 km/h 68 % 0.0 mm
04:55 1.9 °C -3.4 °C 1010.0 hPa NW 1.6 km/h 3.2 km/h 68 % 0.0 mm
05:00 1.8 °C -3.5 °C 1010.0 hPa NW 1.6 km/h 1.6 km/h 68 % 0.0 mm
05:05 1.8 °C -3.5 °C 1010.0 hPa Calm     68 % 0.0 mm
05:10 1.7 °C -3.6 °C 1010.0 hPa West 1.6 km/h 1.6 km/h 68 % 0.0 mm
05:15 1.5 °C -3.8 °C 1010.0 hPa West 3.2 km/h 3.2 km/h 68 % 0.0 mm
05:20 1.5 °C -3.8 °C 1010.0 hPa West 3.2 km/h 3.2 km/h 68 % 0.0 mm
05:25 1.3 °C -3.9 °C 1010.0 hPa Calm     68 % 0.0 mm
05:30 1.3 °C -3.9 °C 1010.0 hPa Calm     68 % 0.0 mm
05:35 1.3 °C -3.8 °C 1010.0 hPa Calm   3.2 km/h 69 % 0.0 mm
05:40 1.3 °C -3.8 °C 1010.0 hPa Calm   3.2 km/h 69 % 0.0 mm
05:45 1.4 °C -3.7 °C 1010.0 hPa NNW 1.6 km/h   69 % 0.0 mm
05:50 1.4 °C -3.7 °C 1010.0 hPa NNW 1.6 km/h 3.2 km/h 69 % 0.0 mm
05:55 1.3 °C -3.8 °C 1010.0 hPa WNW 1.6 km/h 1.6 km/h 69 % 0.0 mm
06:00 1.3 °C -3.8 °C 1010.0 hPa NW 1.6 km/h 1.6 km/h 69 % 0.0 mm
06:05 1.3 °C -3.8 °C 1010.0 hPa WNW 1.6 km/h   69 % 0.0 mm
06:10 1.3 °C -3.8 °C 1010.0 hPa West 1.6 km/h   69 % 0.0 mm
06:35 1.2 °C -4.1 °C 1009.0 hPa Calm   1.6 km/h 68 % 0.0 mm
06:40 1.2 °C -4.1 °C 1009.0 hPa NNW 1.6 km/h 1.6 km/h 68 % 0.0 mm
06:45 1.1 °C -4.2 °C 1010.0 hPa West 1.6 km/h 1.6 km/h 68 % 0.0 mm
06:50 1.0 °C -4.2 °C 1010.0 hPa Calm   1.6 km/h 68 % 0.0 mm
06:55 1.1 °C -4.2 °C 1010.0 hPa Calm   1.6 km/h 68 % 0.0 mm
07:00 1.0 °C -4.2 °C 1010.0 hPa Calm     68 % 0.0 mm
07:05 1.0 °C -4.2 °C 1010.0 hPa NW 1.6 km/h 1.6 km/h 68 % 0.0 mm
07:10 0.8 °C -4.4 °C 1010.0 hPa West 1.6 km/h 3.2 km/h 68 % 0.0 mm
07:15 0.8 °C -4.4 °C 1010.0 hPa West 1.6 km/h 3.2 km/h 68 % 0.0 mm
07:20 0.7 °C -4.6 °C 1010.0 hPa Calm     68 % 0.0 mm
07:40 0.8 °C -4.4 °C 1010.7 hPa Calm     68 % 0.0 mm
07:45 0.8 °C -4.4 °C 1010.7 hPa Calm     68 % 0.0 mm
07:50 0.8 °C -4.4 °C 1010.7 hPa Calm     68 % 0.0 mm
07:55 0.8 °C -4.6 °C 1010.7 hPa Calm   3.2 km/h 67 % 0.0 mm
08:00 0.8 °C -4.6 °C 1010.7 hPa Calm     67 % 0.0 mm
08:05 0.7 °C -4.7 °C 1010.7 hPa WSW 1.6 km/h 3.2 km/h 67 % 0.0 mm
08:10 0.7 °C -4.7 °C 1010.7 hPa Calm   1.6 km/h 67 % 0.0 mm
08:15 0.6 °C -4.8 °C 1010.7 hPa NW 1.6 km/h 1.6 km/h 67 % 0.0 mm
08:20 0.7 °C -4.7 °C 1011.7 hPa NW 1.6 km/h 3.2 km/h 67 % 0.0 mm
08:30 1.2 °C -4.3 °C 1011.7 hPa NNW 1.6 km/h   67 % 0.0 mm
08:35 1.5 °C -3.9 °C 1011.7 hPa Calm   1.6 km/h 67 % 0.0 mm
08:40 1.6 °C -3.9 °C 1011.7 hPa Calm     67 % 0.0 mm
08:45 1.4 °C -4.3 °C 1011.7 hPa West 1.6 km/h 1.6 km/h 66 % 0.0 mm
08:50 1.8 °C -3.7 °C 1011.7 hPa Calm     67 % 0.0 mm
09:00 2.4 °C -3.3 °C 1011.7 hPa NNW 1.6 km/h 4.8 km/h 66 % 0.0 mm
09:05 3.1 °C -2.8 °C 1010.7 hPa NNW 1.6 km/h 1.6 km/h 65 % 0.0 mm
09:15 3.3 °C -2.9 °C 1011.7 hPa NNE 3.2 km/h 3.2 km/h 64 % 0.0 mm
09:20 3.3 °C -2.9 °C 1011.7 hPa NNE 3.2 km/h 3.2 km/h 64 % 0.0 mm
09:25 3.5 °C -2.9 °C 1011.7 hPa NNW 1.6 km/h 3.2 km/h 63 % 0.0 mm
09:30 3.5 °C -2.9 °C 1011.7 hPa North 1.6 km/h 3.2 km/h 63 % 0.0 mm
09:35 4.4 °C -2.1 °C 1011.7 hPa Calm     63 % 0.0 mm
09:40 4.4 °C -2.1 °C 1011.7 hPa Calm   1.6 km/h 63 % 0.0 mm
09:45 4.5 °C -2.2 °C 1011.7 hPa ESE 1.6 km/h 3.2 km/h 62 % 0.0 mm
09:50 4.5 °C -2.2 °C 1011.7 hPa SSE 1.6 km/h 3.2 km/h 62 % 0.0 mm
09:55 4.4 °C -2.5 °C 1011.7 hPa Calm     61 % 0.0 mm
10:00 4.4 °C -2.5 °C 1011.7 hPa Calm   6.4 km/h 61 % 0.0 mm
10:05 4.9 °C -2.4 °C 1011.7 hPa NE 3.2 km/h 3.2 km/h 59 % 0.0 mm
10:10 5.2 °C -2.2 °C 1011.7 hPa East 1.6 km/h 3.2 km/h 59 % 0.0 mm
10:15 5.3 °C -2.1 °C 1011.7 hPa East 1.6 km/h 3.2 km/h 59 % 0.0 mm
10:20 5.3 °C -2.1 °C 1011.7 hPa East 1.6 km/h 3.2 km/h 59 % 0.0 mm
10:36 5.8 °C -2.1 °C 1012.8 hPa SW 3.7 km/h 3.7 km/h 57 % 0.0 mm
10:41 5.8 °C -2.3 °C 1012.8 hPa WSW 2.3 km/h 2.3 km/h 56 % 0.0 mm
10:46 6.3 °C -1.8 °C 1013.8 hPa ESE 3.9 km/h 3.9 km/h 56 % 0.0 mm
10:51 6.4 °C -1.8 °C 1013.8 hPa North 3.7 km/h 3.7 km/h 56 % 0.0 mm
10:56 6.3 °C -1.8 °C 1013.8 hPa East 3.7 km/h 3.7 km/h 56 % 0.0 mm
11:01 6.7 °C -1.7 °C 1013.8 hPa East 3.7 km/h 3.7 km/h 55 % 0.0 mm
11:06 6.8 °C -1.6 °C 1013.8 hPa ENE 5.6 km/h 5.6 km/h 55 % 0.0 mm
11:16 6.5 °C -1.9 °C 1013.8 hPa ENE 5.6 km/h 5.6 km/h 55 % 0.0 mm
11:21 6.8 °C -1.9 °C 1013.8 hPa East 5.6 km/h 5.6 km/h 54 % 0.0 mm
11:26 7.0 °C -1.7 °C 1013.8 hPa ESE 5.6 km/h 5.6 km/h 54 % 0.0 mm
11:31 7.3 °C -1.7 °C 1013.8 hPa SSE 6.1 km/h 6.1 km/h 53 % 0.0 mm
11:36 7.2 °C -1.8 °C 1013.8 hPa ESE 3.7 km/h 3.7 km/h 53 % 0.0 mm
11:41 7.7 °C -1.3 °C 1013.8 hPa South 3.7 km/h 3.7 km/h 53 % 0.0 mm
11:46 7.6 °C -1.7 °C 1012.8 hPa ESE 6.4 km/h 6.4 km/h 52 % 0.0 mm
11:51 7.7 °C -1.8 °C 1012.8 hPa NE 5.6 km/h 5.6 km/h 51 % 0.0 mm
11:56 7.9 °C -1.6 °C 1012.8 hPa ENE 5.6 km/h 5.6 km/h 51 % 0.0 mm
12:06 8.0 °C -2.1 °C 1011.7 hPa ESE 7.4 km/h 7.4 km/h 49 % 0.0 mm
12:11 8.4 °C -1.4 °C 1011.7 hPa SSE 3.2 km/h   50 % 0.0 mm
12:16 8.6 °C -1.5 °C 1011.7 hPa SSE 3.7 km/h 3.7 km/h 49 % 0.0 mm
12:21 8.7 °C -1.4 °C 1011.7 hPa ESE 3.9 km/h 3.9 km/h 49 % 0.0 mm
12:26 8.8 °C -1.3 °C 1011.7 hPa ENE 9.3 km/h 9.3 km/h 49 % 0.0 mm
12:31 9.1 °C -1.3 °C 1011.7 hPa SSE 3.7 km/h 3.7 km/h 48 % 0.0 mm
12:36 9.2 °C -1.3 °C 1011.7 hPa ESE 5.6 km/h 5.6 km/h 48 % 0.0 mm
12:41 9.2 °C -1.3 °C 1011.7 hPa ENE 7.4 km/h 7.4 km/h 48 % 0.0 mm
12:46 9.7 °C -0.8 °C 1011.7 hPa NNE 4.2 km/h 4.2 km/h 48 % 0.0 mm
12:51 9.8 °C -1.3 °C 1011.7 hPa ESE 5.6 km/h 5.6 km/h 46 % 0.0 mm
12:56 9.9 °C -1.2 °C 1011.7 hPa NE 5.6 km/h 5.6 km/h 46 % 0.0 mm
13:01 9.8 °C -1.6 °C 1011.7 hPa WSW 7.4 km/h 7.4 km/h 45 % 0.0 mm
13:06 10.3 °C -0.6 °C 1011.7 hPa ENE 2.3 km/h 2.3 km/h 47 % 0.0 mm
13:11 10.7 °C 0.1 °C 1011.7 hPa NNW 9.3 km/h 9.3 km/h 48 % 0.0 mm
13:26 11.0 °C -1.1 °C 1011.7 hPa NNW 5.6 km/h 5.6 km/h 43 % 0.0 mm
13:31 11.1 °C -0.7 °C 1012.8 hPa West 3.7 km/h 3.7 km/h 44 % 0.0 mm
13:36 11.2 °C -0.9 °C 1012.8 hPa WSW 6.9 km/h 6.9 km/h 43 % 0.0 mm
13:41 11.3 °C -0.6 °C 1012.8 hPa SW 7.4 km/h 7.4 km/h 44 % 0.0 mm
13:46 11.4 °C -0.8 °C 1011.7 hPa SW 3.7 km/h 3.7 km/h 43 % 0.0 mm
13:51 11.5 °C -0.3 °C 1011.7 hPa West 7.4 km/h 7.4 km/h 44 % 0.0 mm
13:56 11.6 °C -0.6 °C 1011.7 hPa WSW 5.6 km/h 5.6 km/h 43 % 0.0 mm
14:01 11.5 °C -1.0 °C 1011.7 hPa ENE 3.9 km/h 3.9 km/h 42 % 0.0 mm
14:06 11.4 °C -1.1 °C 1011.7 hPa WSW 5.6 km/h 5.6 km/h 42 % 0.0 mm
14:11 11.5 °C -1.3 °C 1011.7 hPa WSW 9.3 km/h 9.3 km/h 41 % 0.0 mm
14:16 11.5 °C -1.3 °C 1011.7 hPa NW 7.4 km/h 7.4 km/h 41 % 0.0 mm
14:21 11.5 °C -1.3 °C 1011.7 hPa WNW 11.9 km/h 11.9 km/h 41 % 0.0 mm
14:31 11.5 °C -2.0 °C 1011.7 hPa WSW 9.0 km/h 9.0 km/h 39 % 0.0 mm
14:36 11.5 °C -2.3 °C 1011.7 hPa WSW 14.8 km/h 14.8 km/h 38 % 0.0 mm
14:41 11.6 °C -2.3 °C 1011.7 hPa WSW 12.2 km/h 12.2 km/h 38 % 0.0 mm
15:01 12.0 °C -2.6 °C 1011.7 hPa SW 7.4 km/h 7.4 km/h 36 % 0.0 mm
15:06 11.9 °C -2.7 °C 1011.7 hPa SW 14.8 km/h 14.8 km/h 36 % 0.0 mm
15:21 11.7 °C -3.7 °C 1011.7 hPa West 7.4 km/h 7.4 km/h 34 % 0.0 mm
15:26 11.8 °C -3.6 °C 1011.7 hPa West 5.8 km/h 5.8 km/h 34 % 0.0 mm
15:31 11.7 °C -3.7 °C 1011.7 hPa WSW 5.6 km/h 5.6 km/h 34 % 0.0 mm
15:36 11.8 °C -3.6 °C 1011.7 hPa West 3.9 km/h 4.2 km/h 34 % 0.0 mm
15:41 11.7 °C -3.7 °C 1011.7 hPa West 7.4 km/h 7.4 km/h 34 % 0.0 mm
15:51 11.6 °C -3.8 °C 1011.7 hPa West 4.2 km/h 4.2 km/h 34 % 0.0 mm
16:01 11.4 °C -3.9 °C 1011.7 hPa West 9.3 km/h 9.3 km/h 34 % 0.0 mm
16:06 11.2 °C -4.1 °C 1011.7 hPa WSW 14.8 km/h 14.8 km/h 34 % 0.0 mm
16:11 10.9 °C -4.8 °C 1011.7 hPa ENE 9.3 km/h 9.3 km/h 33 % 0.0 mm
16:16 10.9 °C -4.8 °C 1011.7 hPa WSW 5.8 km/h 5.8 km/h 33 % 0.0 mm
16:21 10.9 °C -4.8 °C 1011.7 hPa West 9.3 km/h 9.3 km/h 33 % 0.0 mm
16:26 10.8 °C -4.8 °C 1011.7 hPa WSW 5.6 km/h 5.6 km/h 33 % 0.0 mm
16:36 10.2 °C -5.8 °C 1011.7 hPa West 9.3 km/h 9.5 km/h 32 % 0.0 mm
16:41 10.2 °C -5.8 °C 1011.7 hPa SW 7.4 km/h 7.4 km/h 32 % 0.0 mm
16:46 10.0 °C -5.9 °C 1012.8 hPa West 5.6 km/h 5.6 km/h 32 % 0.0 mm
16:56 9.7 °C -5.8 °C 1012.8 hPa West 5.6 km/h 5.6 km/h 33 % 0.0 mm
17:11 9.0 °C -6.4 °C 1011.7 hPa WSW 9.3 km/h 9.3 km/h 33 % 0.0 mm
17:16 8.8 °C -6.6 °C 1012.8 hPa West 3.7 km/h 3.7 km/h 33 % 0.0 mm
17:21 8.5 °C -6.9 °C 1012.8 hPa NW 1.9 km/h   33 % 0.0 mm
17:26 8.3 °C -7.1 °C 1012.8 hPa NW 1.9 km/h 2.3 km/h 33 % 0.0 mm
17:31 8.1 °C -7.6 °C 1011.7 hPa Calm     32 % 0.0 mm
17:42 7.7 °C -7.6 °C 1011.7 hPa WNW 3.2 km/h   33 % 0.0 mm
17:47 7.6 °C -7.7 °C 1011.7 hPa WNW 1.9 km/h 1.9 km/h 33 % 0.0 mm
17:57 7.3 °C -7.9 °C 1011.7 hPa Calm     33 % 0.0 mm
18:07 7.0 °C -8.2 °C 1012.8 hPa Calm     33 % 0.0 mm
18:12 6.9 °C -8.3 °C 1012.8 hPa Calm     33 % 0.0 mm
18:17 6.7 °C -8.4 °C 1012.8 hPa WSW 3.7 km/h 3.7 km/h 33 % 0.0 mm
18:22 6.6 °C -8.6 °C 1012.8 hPa NW 1.9 km/h 1.9 km/h 33 % 0.0 mm
18:27 6.4 °C -8.7 °C 1012.8 hPa Calm     33 % 0.0 mm
18:32 6.3 °C -8.8 °C 1012.8 hPa NW 1.9 km/h   33 % 0.0 mm
18:37 6.3 °C -8.8 °C 1012.8 hPa Calm     33 % 0.0 mm
18:42 6.2 °C -8.9 °C 1012.8 hPa Calm     33 % 0.0 mm
18:47 6.1 °C -9.0 °C 1013.8 hPa NW 1.9 km/h 2.3 km/h 33 % 0.0 mm
18:52 6.2 °C -8.9 °C 1013.8 hPa NNE 3.7 km/h 3.7 km/h 33 % 0.0 mm
18:57 6.3 °C -8.8 °C 1013.8 hPa East 3.7 km/h 3.9 km/h 33 % 0.0 mm
19:02 6.5 °C -8.7 °C 1013.8 hPa SW 3.7 km/h 3.7 km/h 33 % 0.0 mm
19:07 6.3 °C -8.8 °C 1013.8 hPa Calm     33 % 0.0 mm
19:12 6.2 °C -8.9 °C 1013.8 hPa SE 3.7 km/h 3.7 km/h 33 % 0.0 mm
19:17 6.2 °C -8.9 °C 1013.8 hPa SSE 1.9 km/h   33 % 0.0 mm
19:27 5.8 °C -9.3 °C 1013.8 hPa West 1.9 km/h   33 % 0.0 mm
19:32 5.6 °C -9.4 °C 1013.8 hPa West 1.9 km/h 2.3 km/h 33 % 0.0 mm
19:42 5.2 °C -9.8 °C 1013.8 hPa WSW 1.9 km/h 1.9 km/h 33 % 0.0 mm
19:52 5.1 °C -9.9 °C 1014.8 hPa West 2.3 km/h 2.3 km/h 33 % 0.0 mm
20:02 5.4 °C -9.6 °C 1013.8 hPa WNW 2.3 km/h 2.3 km/h 33 % 0.0 mm
20:07 5.2 °C -9.4 °C 1013.8 hPa WSW 1.9 km/h   34 % 0.0 mm
20:12 5.0 °C -9.6 °C 1013.8 hPa WSW 1.9 km/h 1.9 km/h 34 % 0.0 mm
20:17 4.6 °C -9.9 °C 1013.8 hPa WSW 2.6 km/h 2.6 km/h 34 % 0.0 mm
20:22 4.6 °C -9.9 °C 1013.8 hPa Calm     34 % 0.0 mm
20:27 4.6 °C -9.9 °C 1013.8 hPa Calm     34 % 0.0 mm
20:32 5.1 °C -9.5 °C 1013.8 hPa West 3.7 km/h 3.7 km/h 34 % 0.0 mm
20:37 5.1 °C -9.5 °C 1013.8 hPa Calm     34 % 0.0 mm
20:38 5.1 °C -9.5 °C 1013.8 hPa West 1.9 km/h   34 % 0.0 mm
20:43 5.2 °C -9.4 °C 1013.8 hPa SW 1.9 km/h 1.9 km/h 34 % 0.0 mm
20:48 5.2 °C -9.4 °C 1013.8 hPa ENE 5.0 km/h   34 % 0.0 mm
20:53 5.2 °C -9.1 °C 1013.8 hPa NE 3.7 km/h   35 % 0.0 mm
20:58 5.3 °C -8.9 °C 1013.8 hPa ENE 5.6 km/h 5.6 km/h 35 % 0.0 mm
21:03 5.3 °C -8.6 °C 1013.8 hPa SSE 5.6 km/h 5.6 km/h 36 % 0.0 mm
21:13 5.9 °C -8.1 °C 1013.8 hPa NNE 7.4 km/h 7.4 km/h 36 % 0.0 mm
21:18 5.6 °C -8.3 °C 1013.8 hPa NNW 3.9 km/h 3.9 km/h 36 % 0.0 mm
21:23 5.2 °C -8.7 °C 1013.8 hPa East 4.7 km/h 4.7 km/h 36 % 0.0 mm
21:28 5.0 °C -8.9 °C 1013.8 hPa NNE 3.7 km/h 3.7 km/h 36 % 0.0 mm
21:33 4.6 °C -9.2 °C 1012.8 hPa ESE 5.6 km/h 5.6 km/h 36 % 0.0 mm
21:39 4.5 °C -9.3 °C 1012.8 hPa ESE 3.7 km/h 3.7 km/h 36 % 0.0 mm
21:44 4.3 °C -9.5 °C 1012.8 hPa SE 1.9 km/h   36 % 0.0 mm
21:54 3.8 °C -9.9 °C 1012.8 hPa NNE 5.6 km/h 5.6 km/h 36 % 0.0 mm
21:59 3.7 °C -10.0 °C 1012.8 hPa ENE 5.0 km/h 5.0 km/h 36 % 0.0 mm
22:04 3.8 °C -9.6 °C 1013.8 hPa NNE 5.6 km/h 5.6 km/h 37 % 0.0 mm
22:09 3.8 °C -9.6 °C 1013.8 hPa ENE 1.9 km/h   37 % 0.0 mm
22:14 3.9 °C -9.5 °C 1013.8 hPa ENE 3.7 km/h 3.7 km/h 37 % 0.0 mm
22:19 3.8 °C -9.6 °C 1013.8 hPa ESE 3.2 km/h 3.2 km/h 37 % 0.0 mm
22:24 3.9 °C -9.2 °C 1013.8 hPa East 3.7 km/h 3.7 km/h 38 % 0.0 mm
22:44 3.2 °C -9.4 °C 1014.8 hPa ENE 3.7 km/h 3.7 km/h 39 % 0.0 mm
22:49 3.3 °C -9.4 °C 1013.8 hPa WSW 1.9 km/h 1.9 km/h 39 % 0.0 mm
22:54 3.4 °C -9.3 °C 1013.8 hPa Calm     39 % 0.0 mm
22:59 3.6 °C -9.1 °C 1013.8 hPa West 3.7 km/h 3.7 km/h 39 % 0.0 mm
23:04 3.8 °C -8.6 °C 1013.8 hPa WNW 5.0 km/h 5.0 km/h 40 % 0.0 mm
23:09 4.1 °C -8.0 °C 1013.8 hPa WSW 5.6 km/h 5.6 km/h 41 % 0.0 mm
23:19 4.3 °C -7.5 °C 1013.8 hPa WSW 2.6 km/h 2.6 km/h 42 % 0.0 mm
23:24 4.3 °C -7.5 °C 1013.8 hPa WNW 3.7 km/h 3.7 km/h 42 % 0.0 mm
23:34 4.3 °C -7.2 °C 1013.8 hPa NW 3.7 km/h 3.7 km/h 43 % 0.0 mm
23:39 4.3 °C -6.9 °C 1013.8 hPa ENE 3.7 km/h 3.7 km/h 44 % 0.0 mm
23:49 4.4 °C -6.8 °C 1012.8 hPa WSW 7.4 km/h 7.4 km/h 44 % 0.0 mm
23:55 4.3 °C -6.6 °C 1012.8 hPa West 3.7 km/h 3.7 km/h 45 % 0.0 mm
Meteo Sesrovires
Elogis d' Weather Underground - 3.75 mb

Guio original per  Jim McMurry - jmcmurry@mwt.net Adaptat per a la plantilla per  Wim van der Kuil - Leuven-Template.eu

Trobareu la nostra informacio del temps tambe a:

Weather Underground

AWEKAS